Time;durP1;ratioP1;P1;durP2;ratioP2;P2;SDS_P1;SDS_P2;PMS_P1;PMS_P2;Temp;Humidity;BMP_temperature;BMP_pressure;BME280_temperature;BME280_humidity;BME280_pressure;Samples;Min_cycle;Max_cycle;Signal;HPM_P1;HPM_P2
2021/08/23 00:00:22;;;;;;;6.63;4.40;;;;;;;;;;5073531;28;20100;-71
2021/08/23 00:02:48;;;;;;;4.63;3.75;;;;;;;;;;5073445;28;20032;-72
2021/08/23 00:05:14;;;;;;;7.05;4.80;;;;;;;;;;5072839;28;20070;-73
2021/08/23 00:07:41;;;;;;;6.32;4.32;;;;;;;;;;5073534;28;20090;-72
2021/08/23 00:10:08;;;;;;;6.32;4.10;;;;;;;;;;5073401;28;20088;-73
2021/08/23 00:12:35;;;;;;;5.03;3.97;;;;;;;;;;5072135;28;20029;-73
2021/08/23 00:15:01;;;;;;;5.90;4.00;;;;;;;;;;5073402;28;20028;-72
2021/08/23 00:17:27;;;;;;;5.53;3.80;;;;;;;;;;5073355;28;20029;-71
2021/08/23 00:19:53;;;;;;;6.68;4.25;;;;;;;;;;5073501;28;20025;-72
2021/08/23 00:22:33;;;;;;;7.47;4.22;;;;;;;;;;5074361;28;20074;-72
2021/08/23 00:25:00;;;;;;;12.65;4.45;;;;;;;;;;5073282;28;20032;-71
2021/08/23 00:27:27;;;;;;;5.05;4.03;;;;;;;;;;5073426;28;20146;-71
2021/08/23 00:29:53;;;;;;;5.43;3.95;;;;;;;;;;5072919;28;20020;-72
2021/08/23 00:32:19;;;;;;;6.35;3.70;;;;;;;;;;5072649;28;20032;-72
2021/08/23 00:34:45;;;;;;;6.47;3.88;;;;;;;;;;5072315;28;20032;-73
2021/08/23 00:37:11;;;;;;;4.85;3.90;;;;;;;;;;5072796;28;20028;-72
2021/08/23 00:39:38;;;;;;;5.80;4.75;;;;;;;;;;5072797;28;20060;-73
2021/08/23 00:42:05;;;;;;;4.88;4.10;;;;;;;;;;5072860;28;20020;-72
2021/08/23 00:44:31;;;;;;;4.60;3.53;;;;;;;;;;5073099;28;20103;-72
2021/08/23 00:46:58;;;;;;;5.68;3.75;;;;;;;;;;5072917;28;20445;-72
2021/08/23 00:49:24;;;;;;;4.35;3.78;;;;;;;;;;5072944;28;20360;-72
2021/08/23 00:51:52;;;;;;;5.43;4.18;;;;;;;;;;5072562;28;20021;-72
2021/08/23 00:54:18;;;;;;;5.25;3.90;;;;;;;;;;5072720;28;20094;-71
2021/08/23 00:56:44;;;;;;;5.00;4.18;;;;;;;;;;5072632;28;20471;-71
2021/08/23 00:59:11;;;;;;;6.93;4.22;;;;;;;;;;5072917;28;20535;-72
2021/08/23 01:01:37;;;;;;;6.25;4.68;;;;;;;;;;5072952;28;20032;-71
2021/08/23 01:04:03;;;;;;;6.80;4.20;;;;;;;;;;5072737;28;20033;-73
2021/08/23 01:06:30;;;;;;;7.32;3.90;;;;;;;;;;5072583;28;20041;-72
2021/08/23 01:08:58;;;;;;;4.45;3.83;;;;;;;;;;5072638;28;20048;-72
2021/08/23 01:11:26;;;;;;;7.20;4.10;;;;;;;;;;5072588;28;20031;-73
2021/08/23 01:13:52;;;;;;;7.60;4.30;;;;;;;;;;5072639;28;20024;-72
2021/08/23 01:16:18;;;;;;;5.88;4.10;;;;;;;;;;5074083;28;20033;-73
2021/08/23 01:18:45;;;;;;;5.63;3.83;;;;;;;;;;5076536;28;20025;-70
2021/08/23 01:21:12;;;;;;;6.10;4.22;;;;;;;;;;5076489;28;20103;-72
2021/08/23 01:23:41;;;;;;;8.10;4.47;;;;;;;;;;5076342;28;20100;-74
2021/08/23 01:26:07;;;;;;;4.05;3.33;;;;;;;;;;5076723;28;20108;-70
2021/08/23 01:28:45;;;;;;;5.15;3.80;;;;;;;;;;5077745;28;20040;-72
2021/08/23 01:31:11;;;;;;;7.75;4.72;;;;;;;;;;5078228;28;20020;-72
2021/08/23 01:33:37;;;;;;;5.47;4.15;;;;;;;;;;5076422;28;20021;-74
2021/08/23 01:36:04;;;;;;;6.55;4.68;;;;;;;;;;5076205;28;20017;-73
2021/08/23 01:38:30;;;;;;;5.82;4.45;;;;;;;;;;5076105;28;20402;-72
2021/08/23 01:41:03;;;;;;;5.93;4.20;;;;;;;;;;5076073;28;20082;-72
2021/08/23 01:43:29;;;;;;;5.43;4.07;;;;;;;;;;5076157;28;20033;-72
2021/08/23 01:45:55;;;;;;;6.30;4.28;;;;;;;;;;5075952;28;20017;-72
2021/08/23 01:48:21;;;;;;;6.50;4.80;;;;;;;;;;5075929;28;20475;-72
2021/08/23 01:50:47;;;;;;;5.75;4.40;;;;;;;;;;5076478;28;20025;-73
2021/08/23 01:53:16;;;;;;;6.68;4.40;;;;;;;;;;5076005;28;20055;-71
2021/08/23 01:55:42;;;;;;;5.60;3.90;;;;;;;;;;5074782;28;20052;-73
2021/08/23 01:58:08;;;;;;;5.68;4.28;;;;;;;;;;5075851;28;20411;-72
2021/08/23 02:00:34;;;;;;;7.07;4.43;;;;;;;;;;5075937;28;20378;-74
2021/08/23 02:03:00;;;;;;;5.47;3.60;;;;;;;;;;5074200;28;20032;-71
2021/08/23 02:05:28;;;;;;;7.53;4.47;;;;;;;;;;5075474;28;20059;-72
2021/08/23 02:07:54;;;;;;;6.45;4.93;;;;;;;;;;5075356;28;20048;-73
2021/08/23 02:10:20;;;;;;;5.15;4.30;;;;;;;;;;5075421;28;20017;-74
2021/08/23 02:12:46;;;;;;;6.18;4.88;;;;;;;;;;5075355;28;20033;-72
2021/08/23 02:15:12;;;;;;;6.28;4.43;;;;;;;;;;5075253;28;20112;-71
2021/08/23 02:17:38;;;;;;;5.70;4.70;;;;;;;;;;5075529;28;20047;-74
2021/08/23 02:20:05;;;;;;;4.90;4.40;;;;;;;;;;5075314;28;20100;-73
2021/08/23 02:22:31;;;;;;;5.50;4.85;;;;;;;;;;5074960;28;20357;-71
2021/08/23 02:24:57;;;;;;;6.97;4.70;;;;;;;;;;5075123;28;20024;-72
2021/08/23 02:27:23;;;;;;;6.57;4.65;;;;;;;;;;5074927;28;20031;-71
2021/08/23 02:29:49;;;;;;;6.05;4.30;;;;;;;;;;5075266;28;20365;-72
2021/08/23 02:32:15;;;;;;;6.30;4.20;;;;;;;;;;5076752;28;20017;-74
2021/08/23 02:34:41;;;;;;;5.05;4.50;;;;;;;;;;5075052;28;20027;-72
2021/08/23 02:37:08;;;;;;;5.40;4.25;;;;;;;;;;5075095;28;20025;-72
2021/08/23 02:39:34;;;;;;;5.05;4.07;;;;;;;;;;5075142;28;20084;-73
2021/08/23 02:42:00;;;;;;;6.07;4.32;;;;;;;;;;5075027;28;20028;-72
2021/08/23 02:44:26;;;;;;;7.10;4.68;;;;;;;;;;5073864;28;20024;-73
2021/08/23 02:46:52;;;;;;;6.10;4.22;;;;;;;;;;5075108;28;20027;-74
2021/08/23 02:49:18;;;;;;;6.90;4.57;;;;;;;;;;5074864;28;20024;-71
2021/08/23 02:51:45;;;;;;;6.22;4.97;;;;;;;;;;5075419;28;20031;-72
2021/08/23 02:54:11;;;;;;;5.07;4.53;;;;;;;;;;5074756;28;20029;-72
2021/08/23 02:56:37;;;;;;;4.88;4.30;;;;;;;;;;5075136;28;20044;-71
2021/08/23 02:59:03;;;;;;;6.40;4.50;;;;;;;;;;5074962;28;20024;-71
2021/08/23 03:01:29;;;;;;;4.80;3.92;;;;;;;;;;5075128;28;20105;-72
2021/08/23 03:03:56;;;;;;;6.13;4.88;;;;;;;;;;5074900;28;20475;-71
2021/08/23 03:06:22;;;;;;;6.43;4.63;;;;;;;;;;5073301;28;20088;-72
2021/08/23 03:08:48;;;;;;;6.22;4.07;;;;;;;;;;5074643;28;20039;-72
2021/08/23 03:11:15;;;;;;;5.20;4.10;;;;;;;;;;5074821;28;20052;-72
2021/08/23 03:13:42;;;;;;;4.60;3.97;;;;;;;;;;5074880;28;20540;-72
2021/08/23 03:16:09;;;;;;;4.55;3.92;;;;;;;;;;5074796;28;20427;-73
2021/08/23 03:18:35;;;;;;;8.00;4.53;;;;;;;;;;5074538;28;20036;-71
2021/08/23 03:21:01;;;;;;;6.10;4.43;;;;;;;;;;5074479;28;20104;-72
2021/08/23 03:23:28;;;;;;;6.38;4.65;;;;;;;;;;5074709;28;20024;-74
2021/08/23 03:25:54;;;;;;;6.90;4.88;;;;;;;;;;5074486;28;20048;-71
2021/08/23 03:28:20;;;;;;;4.90;4.20;;;;;;;;;;5074266;28;20053;-72
2021/08/23 03:30:46;;;;;;;6.20;4.53;;;;;;;;;;5074533;28;20077;-72
2021/08/23 03:33:13;;;;;;;8.75;4.80;;;;;;;;;;5074182;28;20036;-72
2021/08/23 03:35:39;;;;;;;5.43;4.60;;;;;;;;;;5076921;28;20032;-72
2021/08/23 03:38:05;;;;;;;5.50;4.53;;;;;;;;;;5078723;28;20048;-72
2021/08/23 03:40:31;;;;;;;6.10;4.72;;;;;;;;;;5077329;28;20032;-74
2021/08/23 03:42:57;;;;;;;8.20;4.72;;;;;;;;;;5077461;28;20035;-75
2021/08/23 03:45:23;;;;;;;5.60;4.57;;;;;;;;;;5076020;28;20020;-72
2021/08/23 03:47:50;;;;;;;9.85;4.75;;;;;;;;;;5074455;28;20047;-71
2021/08/23 03:50:16;;;;;;;6.05;4.75;;;;;;;;;;5074291;28;20017;-72
2021/08/23 03:52:42;;;;;;;4.65;3.90;;;;;;;;;;5074015;28;20130;-71
2021/08/23 03:55:09;;;;;;;5.15;4.07;;;;;;;;;;5074342;28;20032;-73
2021/08/23 03:57:36;;;;;;;5.47;4.28;;;;;;;;;;5072603;28;20600;-70
2021/08/23 04:00:07;;;;;;;6.10;4.68;;;;;;;;;;5074541;28;20024;-71
2021/08/23 04:02:33;;;;;;;6.38;4.85;;;;;;;;;;5073648;28;20506;-72
2021/08/23 04:04:59;;;;;;;5.93;4.25;;;;;;;;;;5073391;28;20032;-72
2021/08/23 04:07:26;;;;;;;5.88;4.57;;;;;;;;;;5073478;28;20569;-72
2021/08/23 04:09:52;;;;;;;5.60;3.88;;;;;;;;;;5073505;28;20025;-71
2021/08/23 04:12:18;;;;;;;6.13;4.70;;;;;;;;;;5073357;28;20039;-71
2021/08/23 04:14:44;;;;;;;7.53;4.28;;;;;;;;;;5073624;28;20502;-72
2021/08/23 04:17:10;;;;;;;6.72;4.00;;;;;;;;;;5073577;28;20112;-73
2021/08/23 04:19:36;;;;;;;5.97;4.68;;;;;;;;;;5073379;28;20032;-73
2021/08/23 04:22:03;;;;;;;5.18;4.10;;;;;;;;;;5073590;28;20523;-71
2021/08/23 04:24:29;;;;;;;5.25;3.90;;;;;;;;;;5074300;28;20387;-71
2021/08/23 04:26:55;;;;;;;5.97;4.25;;;;;;;;;;5073587;28;20104;-72
2021/08/23 04:29:21;;;;;;;5.03;3.90;;;;;;;;;;5073399;28;20531;-71
2021/08/23 04:31:47;;;;;;;4.68;3.97;;;;;;;;;;5073369;28;20025;-71
2021/08/23 04:34:13;;;;;;;4.47;3.80;;;;;;;;;;5073377;28;20052;-72
2021/08/23 04:36:40;;;;;;;4.38;3.67;;;;;;;;;;5073299;28;20475;-72
2021/08/23 04:39:06;;;;;;;5.63;3.75;;;;;;;;;;5073462;28;20036;-72
2021/08/23 04:41:42;;;;;;;4.28;3.67;;;;;;;;;;5073243;28;20463;-71
2021/08/23 04:44:08;;;;;;;5.63;3.75;;;;;;;;;;5073399;28;20154;-71
2021/08/23 04:46:35;;;;;;;6.97;4.00;;;;;;;;;;5073224;28;20021;-71
2021/08/23 04:49:01;;;;;;;4.45;3.63;;;;;;;;;;5073480;28;20127;-72
2021/08/23 04:51:27;;;;;;;4.57;3.65;;;;;;;;;;5073268;28;20024;-72
2021/08/23 04:53:53;;;;;;;4.82;3.88;;;;;;;;;;5073438;28;20028;-73
2021/08/23 04:56:19;;;;;;;5.75;3.97;;;;;;;;;;5073465;28;20087;-73
2021/08/23 04:58:45;;;;;;;5.95;4.65;;;;;;;;;;5071938;28;20020;-71
2021/08/23 05:01:12;;;;;;;7.90;4.45;;;;;;;;;;5073025;28;20025;-75
2021/08/23 05:03:38;;;;;;;4.30;3.70;;;;;;;;;;5073818;28;20559;-72
2021/08/23 05:06:04;;;;;;;4.45;3.55;;;;;;;;;;5073066;28;20056;-71
2021/08/23 05:08:30;;;;;;;5.45;4.43;;;;;;;;;;5073501;28;20020;-72
2021/08/23 05:10:56;;;;;;;4.57;3.85;;;;;;;;;;5073113;28;20534;-72
2021/08/23 05:13:23;;;;;;;5.50;3.97;;;;;;;;;;5071908;28;20035;-71
2021/08/23 05:15:49;;;;;;;5.38;4.13;;;;;;;;;;5073667;28;20108;-70
2021/08/23 05:18:15;;;;;;;5.07;4.13;;;;;;;;;;5072356;28;20554;-70
2021/08/23 05:20:41;;;;;;;4.57;3.40;;;;;;;;;;5071951;28;20107;-71
2021/08/23 05:23:07;;;;;;;4.65;4.07;;;;;;;;;;5074099;28;20391;-73
2021/08/23 05:25:34;;;;;;;5.82;3.92;;;;;;;;;;5072961;28;20051;-72
2021/08/23 05:28:07;;;;;;;5.40;4.03;;;;;;;;;;5072702;28;20025;-72
2021/08/23 05:30:33;;;;;;;6.25;4.55;;;;;;;;;;5072937;28;20052;-72
2021/08/23 05:32:59;;;;;;;4.53;3.80;;;;;;;;;;5073033;28;20050;-72
2021/08/23 05:35:25;;;;;;;6.30;5.05;;;;;;;;;;5073553;28;20025;-71
2021/08/23 05:37:51;;;;;;;5.28;4.15;;;;;;;;;;5073093;28;20038;-71
2021/08/23 05:40:19;;;;;;;5.03;4.40;;;;;;;;;;5073263;28;20414;-71
2021/08/23 05:42:46;;;;;;;4.40;3.80;;;;;;;;;;5073269;28;20029;-71
2021/08/23 05:45:12;;;;;;;5.43;4.05;;;;;;;;;;5072781;28;20021;-69
2021/08/23 05:47:38;;;;;;;6.22;3.83;;;;;;;;;;5072853;28;20516;-71
2021/08/23 05:50:05;;;;;;;5.40;4.15;;;;;;;;;;5072740;28;20099;-71
2021/08/23 05:52:31;;;;;;;5.63;3.75;;;;;;;;;;5072810;28;20112;-72
2021/08/23 05:54:57;;;;;;;5.13;3.70;;;;;;;;;;5072570;28;20035;-72
2021/08/23 05:57:26;;;;;;;5.40;4.13;;;;;;;;;;5071428;28;20037;-72
2021/08/23 05:59:53;;;;;;;4.25;3.72;;;;;;;;;;5074101;28;20044;-74
2021/08/23 06:02:19;;;;;;;9.98;4.45;;;;;;;;;;5073631;28;20024;-71
2021/08/23 06:04:45;;;;;;;27.52;6.85;;;;;;;;;;5076038;28;20016;-72
2021/08/23 06:07:11;;;;;;;59.13;9.65;;;;;;;;;;5075948;28;20115;-71
2021/08/23 06:09:37;;;;;;;49.35;8.85;;;;;;;;;;5075980;28;20074;-72
2021/08/23 06:12:03;;;;;;;66.93;13.27;;;;;;;;;;5076286;28;20554;-74
2021/08/23 06:14:29;;;;;;;92.30;12.40;;;;;;;;;;5076366;28;20109;-71
2021/08/23 06:16:55;;;;;;;79.00;10.63;;;;;;;;;;5075790;28;20048;-72
2021/08/23 06:19:21;;;;;;;64.22;9.73;;;;;;;;;;5076046;28;20029;-71
2021/08/23 06:21:48;;;;;;;85.00;9.98;;;;;;;;;;5077270;28;20060;-71
2021/08/23 06:24:14;;;;;;;96.20;9.73;;;;;;;;;;5075974;28;20025;-72
2021/08/23 06:26:40;;;;;;;41.67;7.32;;;;;;;;;;5075893;28;20021;-72
2021/08/23 06:29:07;;;;;;;122.80;11.70;;;;;;;;;;5075606;28;20017;-72
2021/08/23 06:31:34;;;;;;;82.13;10.35;;;;;;;;;;5075836;28;20403;-73
2021/08/23 06:34:00;;;;;;;47.15;8.52;;;;;;;;;;5076322;28;20032;-72
2021/08/23 06:36:26;;;;;;;46.15;8.82;;;;;;;;;;5075288;28;20426;-71
2021/08/23 06:38:52;;;;;;;59.45;9.10;;;;;;;;;;5075573;28;20024;-72
2021/08/23 06:41:20;;;;;;;65.20;10.77;;;;;;;;;;5075251;28;20033;-70
2021/08/23 06:43:46;;;;;;;78.18;10.93;;;;;;;;;;5075801;28;20013;-72
2021/08/23 06:46:33;;;;;;;59.38;9.50;;;;;;;;;;5080442;28;20017;-71
2021/08/23 06:49:00;;;;;;;27.75;8.05;;;;;;;;;;5080361;28;20602;-71
2021/08/23 06:51:26;;;;;;;47.85;7.88;;;;;;;;;;5075704;28;20364;-72
2021/08/23 06:53:52;;;;;;;26.65;7.28;;;;;;;;;;5075301;28;20418;-72
2021/08/23 06:56:18;;;;;;;19.80;7.45;;;;;;;;;;5074915;28;20016;-71
2021/08/23 06:58:45;;;;;;;14.50;6.60;;;;;;;;;;5075304;28;20052;-72
2021/08/23 07:01:11;;;;;;;19.70;7.10;;;;;;;;;;5075201;28;20479;-72
2021/08/23 07:03:37;;;;;;;14.73;6.25;;;;;;;;;;5075326;28;20077;-71
2021/08/23 07:06:04;;;;;;;17.95;7.95;;;;;;;;;;5075684;28;20086;-73
2021/08/23 07:08:31;;;;;;;13.30;6.60;;;;;;;;;;5075408;28;20045;-74
2021/08/23 07:10:59;;;;;;;18.17;7.47;;;;;;;;;;5074924;28;20025;-71
2021/08/23 07:13:26;;;;;;;15.57;7.05;;;;;;;;;;5074826;28;20103;-70
2021/08/23 07:15:52;;;;;;;14.25;6.13;;;;;;;;;;5074750;28;20039;-72
2021/08/23 07:18:18;;;;;;;15.95;7.25;;;;;;;;;;5077929;28;20036;-71
2021/08/23 07:20:44;;;;;;;17.88;7.82;;;;;;;;;;5079167;28;20027;-71
2021/08/23 07:23:10;;;;;;;15.20;8.63;;;;;;;;;;5075209;28;20107;-72
2021/08/23 07:25:36;;;;;;;13.50;7.43;;;;;;;;;;5074813;28;20029;-72
2021/08/23 07:28:03;;;;;;;12.13;6.28;;;;;;;;;;5074958;28;20074;-71
2021/08/23 07:30:29;;;;;;;11.52;7.07;;;;;;;;;;5077574;28;20488;-71
2021/08/23 07:32:55;;;;;;;13.90;6.82;;;;;;;;;;5075542;28;20036;-72
2021/08/23 07:35:21;;;;;;;19.02;8.15;;;;;;;;;;5075643;28;20029;-73
2021/08/23 07:37:48;;;;;;;17.08;7.80;;;;;;;;;;5080292;28;20033;-72
2021/08/23 07:40:14;;;;;;;13.43;7.72;;;;;;;;;;5085726;28;20399;-75
2021/08/23 07:42:40;;;;;;;12.13;7.45;;;;;;;;;;5085190;28;20145;-71
2021/08/23 07:45:07;;;;;;;15.80;8.30;;;;;;;;;;5086063;28;20115;-74
2021/08/23 07:47:34;;;;;;;13.65;7.85;;;;;;;;;;5085964;28;20025;-76
2021/08/23 07:50:00;;;;;;;19.85;8.32;;;;;;;;;;5082322;28;20017;-71
2021/08/23 07:52:26;;;;;;;13.32;7.40;;;;;;;;;;5077847;28;20511;-71
2021/08/23 07:54:53;;;;;;;15.35;8.30;;;;;;;;;;5077977;28;20074;-73
2021/08/23 07:57:19;;;;;;;12.93;8.40;;;;;;;;;;5078050;28;20433;-72
2021/08/23 07:59:45;;;;;;;14.95;8.43;;;;;;;;;;5075808;28;20031;-72
2021/08/23 08:02:11;;;;;;;18.30;9.45;;;;;;;;;;5074799;28;20454;-69
2021/08/23 08:04:37;;;;;;;14.88;8.60;;;;;;;;;;5075630;28;20025;-70
2021/08/23 08:07:03;;;;;;;15.60;9.10;;;;;;;;;;5073590;28;20063;-72
2021/08/23 08:09:29;;;;;;;13.23;7.80;;;;;;;;;;5074026;28;20028;-71
2021/08/23 08:11:55;;;;;;;13.98;8.40;;;;;;;;;;5074338;28;20089;-71
2021/08/23 08:14:22;;;;;;;13.80;7.97;;;;;;;;;;5074217;28;20032;-73
2021/08/23 08:16:49;;;;;;;15.40;9.07;;;;;;;;;;5075595;28;20074;-72
2021/08/23 08:19:15;;;;;;;12.15;7.53;;;;;;;;;;5074811;28;20042;-72
2021/08/23 08:21:41;;;;;;;13.93;8.23;;;;;;;;;;5074038;28;20029;-72
2021/08/23 08:24:07;;;;;;;13.65;7.97;;;;;;;;;;5075143;28;20364;-72
2021/08/23 08:26:33;;;;;;;13.45;7.32;;;;;;;;;;5074004;28;20025;-72
2021/08/23 08:28:59;;;;;;;15.13;8.68;;;;;;;;;;5073811;28;20451;-72
2021/08/23 08:31:25;;;;;;;11.32;7.28;;;;;;;;;;5073474;28;20479;-71
2021/08/23 08:33:51;;;;;;;13.38;7.82;;;;;;;;;;5074040;28;20397;-71
2021/08/23 08:36:17;;;;;;;18.05;9.82;;;;;;;;;;5076884;28;20012;-74
2021/08/23 08:38:44;;;;;;;16.23;9.50;;;;;;;;;;5074682;28;20064;-72
2021/08/23 08:41:10;;;;;;;17.35;9.40;;;;;;;;;;5073779;28;20021;-71
2021/08/23 08:43:37;;;;;;;20.73;9.48;;;;;;;;;;5072646;28;20028;-73
2021/08/23 08:46:04;;;;;;;18.55;7.95;;;;;;;;;;5075226;28;20024;-72
2021/08/23 08:48:31;;;;;;;15.38;8.27;;;;;;;;;;5074562;28;20021;-71
2021/08/23 08:50:57;;;;;;;17.70;9.68;;;;;;;;;;5073526;28;20017;-72
2021/08/23 08:53:23;;;;;;;17.08;8.27;;;;;;;;;;5073504;28;20446;-71
2021/08/23 08:55:49;;;;;;;12.63;8.30;;;;;;;;;;5073572;28;20083;-72
2021/08/23 08:58:15;;;;;;;13.95;8.43;;;;;;;;;;5074602;28;20021;-71
2021/08/23 09:00:41;;;;;;;11.57;8.63;;;;;;;;;;5073788;28;20048;-71
2021/08/23 09:03:08;;;;;;;13.20;8.30;;;;;;;;;;5071838;28;20024;-72
2021/08/23 09:05:51;;;;;;;14.77;8.25;;;;;;;;;;5073981;28;20107;-73
2021/08/23 09:08:27;;;;;;;15.52;8.30;;;;;;;;;;5074008;28;20067;-73
2021/08/23 09:10:53;;;;;;;16.38;7.63;;;;;;;;;;5074498;28;20024;-71
2021/08/23 09:13:19;;;;;;;14.82;8.77;;;;;;;;;;5073265;28;20036;-71
2021/08/23 09:15:52;;;;;;;14.80;7.32;;;;;;;;;;5073483;28;20025;-71
2021/08/23 09:18:27;;;;;;;11.23;6.90;;;;;;;;;;5073036;28;20542;-72
2021/08/23 09:20:53;;;;;;;;;;;;;;;;;;5075151;28;20035;-73
2021/08/23 09:23:19;;;;;;;9.27;5.78;;;;;;;;;;5073375;28;19930;-71
2021/08/23 09:25:45;;;;;;;8.73;6.18;;;;;;;;;;5072886;28;20025;-72
2021/08/23 09:28:11;;;;;;;8.50;5.47;;;;;;;;;;5073840;28;20024;-72
2021/08/23 09:30:38;;;;;;;8.13;5.07;;;;;;;;;;5074045;28;20032;-71
2021/08/23 09:33:05;;;;;;;8.38;4.78;;;;;;;;;;5073549;28;20024;-74
2021/08/23 09:35:36;;;;;;;11.15;5.70;;;;;;;;;;5071354;28;20399;-72
2021/08/23 09:38:10;;;;;;;9.82;5.35;;;;;;;;;;5076136;28;20051;-72
2021/08/23 09:40:36;;;;;;;6.70;5.20;;;;;;;;;;5077839;28;20021;-72
2021/08/23 09:43:19;;;;;;;7.55;4.80;;;;;;;;;;5077884;28;20077;-69
2021/08/23 09:45:49;;;;;;;8.45;5.40;;;;;;;;;;5077201;28;20027;-72
2021/08/23 09:48:16;;;;;;;6.55;4.15;;;;;;;;;;5077186;28;20484;-72
2021/08/23 09:50:42;;;;;;;6.60;5.07;;;;;;;;;;5077871;28;20039;-74
2021/08/23 09:53:10;;;;;;;5.68;3.97;;;;;;;;;;5076198;28;20107;-72
2021/08/23 09:55:37;;;;;;;7.75;5.15;;;;;;;;;;5076276;28;20029;-72
2021/08/23 09:58:04;;;;;;;6.82;4.88;;;;;;;;;;5076718;28;20387;-74
2021/08/23 10:00:30;;;;;;;9.77;4.78;;;;;;;;;;5076891;28;20097;-71
2021/08/23 10:02:57;;;;;;;10.63;5.15;;;;;;;;;;5077679;28;20050;-71
2021/08/23 10:05:23;;;;;;;6.88;4.18;;;;;;;;;;5075756;28;20066;-73
2021/08/23 10:07:49;;;;;;;9.88;5.70;;;;;;;;;;5075693;28;20049;-71
2021/08/23 10:10:15;;;;;;;5.43;4.47;;;;;;;;;;5076614;28;20112;-71
2021/08/23 10:12:41;;;;;;;6.82;4.03;;;;;;;;;;5076897;28;20036;-72
2021/08/23 10:15:07;;;;;;;6.85;4.85;;;;;;;;;;5075602;28;20394;-71
2021/08/23 10:17:37;;;;;;;8.05;4.03;;;;;;;;;;5076588;28;20024;-72
2021/08/23 10:20:07;;;;;;;7.03;3.80;;;;;;;;;;5077155;28;20024;-73
2021/08/23 10:22:35;;;;;;;6.43;4.03;;;;;;;;;;5076607;28;20048;-72
2021/08/23 10:25:02;;;;;;;8.60;4.88;;;;;;;;;;5075744;28;20475;-72
2021/08/23 10:27:32;;;;;;;6.28;4.97;;;;;;;;;;5075582;28;20400;-72
2021/08/23 10:29:58;;;;;;;6.75;4.65;;;;;;;;;;5077084;28;20025;-73
2021/08/23 10:32:33;;;;;;;5.85;4.13;;;;;;;;;;5076391;28;20059;-69
2021/08/23 10:34:59;;;;;;;;;;;;;;;;;;5075909;28;20063;-73
2021/08/23 10:37:30;;;;;;;5.55;3.85;;;;;;;;;;5074366;28;19904;-71
2021/08/23 10:40:04;;;;;;;9.77;4.47;;;;;;;;;;5076143;28;20100;-73
2021/08/23 10:42:38;;;;;;;4.80;3.80;;;;;;;;;;5076163;28;20475;-71
2021/08/23 10:45:09;;;;;;;5.50;3.25;;;;;;;;;;5075563;28;20320;-71
2021/08/23 10:47:35;;;;;;;7.35;3.60;;;;;;;;;;5075252;28;20092;-70
2021/08/23 10:50:07;;;;;;;6.47;3.85;;;;;;;;;;5075556;28;20391;-71
2021/08/23 10:52:35;;;;;;;5.47;3.60;;;;;;;;;;5076503;28;20016;-71
2021/08/23 10:55:01;;;;;;;5.75;3.22;;;;;;;;;;5075258;28;20032;-72
2021/08/23 10:57:27;;;;;;;3.85;3.00;;;;;;;;;;5075036;28;20051;-73
2021/08/23 10:59:55;;;;;;;5.35;3.10;;;;;;;;;;5074910;28;20021;-71
2021/08/23 11:02:21;;;;;;;4.60;3.45;;;;;;;;;;5075690;28;20107;-72
2021/08/23 11:04:57;;;;;;;3.40;2.70;;;;;;;;;;5073738;28;20059;-72
2021/08/23 11:07:28;;;;;;;5.13;3.20;;;;;;;;;;5075718;28;20051;-73
2021/08/23 11:10:03;;;;;;;5.00;3.17;;;;;;;;;;5076868;28;20414;-74
2021/08/23 11:12:40;;;;;;;4.15;3.15;;;;;;;;;;5077474;28;20036;-72
2021/08/23 11:15:13;;;;;;;3.78;2.90;;;;;;;;;;5074901;28;20033;-71
2021/08/23 11:17:43;;;;;;;4.05;2.75;;;;;;;;;;5073946;28;20032;-71
2021/08/23 11:20:10;;;;;;;5.97;2.97;;;;;;;;;;5075517;28;20111;-72
2021/08/23 11:22:36;;;;;;;3.72;2.70;;;;;;;;;;5075925;28;20101;-72
2021/08/23 11:25:03;;;;;;;5.55;3.10;;;;;;;;;;5075907;28;20021;-72
2021/08/23 11:27:29;;;;;;;4.50;3.28;;;;;;;;;;5074605;28;20053;-73
2021/08/23 11:29:58;;;;;;;5.13;2.90;;;;;;;;;;5074778;28;20063;-74
2021/08/23 11:32:28;;;;;;;4.28;2.88;;;;;;;;;;5074825;28;20024;-71
2021/08/23 11:34:55;;;;;;;3.50;2.80;;;;;;;;;;5076513;28;20029;-71
2021/08/23 11:37:24;;;;;;;3.83;2.90;;;;;;;;;;5074054;28;20028;-73
2021/08/23 11:40:01;;;;;;;4.75;2.88;;;;;;;;;;5074811;28;20422;-71
2021/08/23 11:42:27;;;;;;;4.68;2.45;;;;;;;;;;5076105;28;20028;-71
2021/08/23 11:44:54;;;;;;;3.53;2.40;;;;;;;;;;5074775;28;20028;-72
2021/08/23 11:47:28;;;;;;;3.72;2.58;;;;;;;;;;5075155;28;20031;-72
2021/08/23 11:49:54;;;;;;;2.97;2.20;;;;;;;;;;5074101;28;20032;-73
2021/08/23 11:52:20;;;;;;;8.68;3.55;;;;;;;;;;5074234;28;20021;-73
2021/08/23 11:54:51;;;;;;;6.70;3.80;;;;;;;;;;5075714;28;20142;-74
2021/08/23 11:57:18;;;;;;;4.68;2.80;;;;;;;;;;5074209;28;20029;-73
2021/08/23 11:59:58;;;;;;;5.07;2.90;;;;;;;;;;5075203;28;20054;-72
2021/08/23 12:02:30;;;;;;;4.20;3.30;;;;;;;;;;5075199;28;20024;-76
2021/08/23 12:05:16;;;;;;;4.75;2.90;;;;;;;;;;5078059;28;20031;-72
2021/08/23 12:07:43;;;;;;;3.67;2.35;;;;;;;;;;5072332;28;20101;-71
2021/08/23 12:10:10;;;;;;;3.97;2.40;;;;;;;;;;5073711;28;20112;-71
2021/08/23 12:12:38;;;;;;;5.75;2.53;;;;;;;;;;5074795;28;20078;-71
2021/08/23 12:15:05;;;;;;;5.40;3.13;;;;;;;;;;5075427;28;20384;-72
2021/08/23 12:17:32;;;;;;;3.60;2.30;;;;;;;;;;5072131;28;20490;-72
2021/08/23 12:20:05;;;;;;;3.40;2.40;;;;;;;;;;5072074;28;20029;-74
2021/08/23 12:22:31;;;;;;;3.67;2.70;;;;;;;;;;5074038;28;20471;-73
2021/08/23 12:25:00;;;;;;;2.42;2.20;;;;;;;;;;5074531;28;20541;-73
2021/08/23 12:27:26;;;;;;;3.08;2.28;;;;;;;;;;5073511;28;20027;-72
2021/08/23 12:29:52;;;;;;;2.85;2.30;;;;;;;;;;5073212;28;20521;-72
2021/08/23 12:32:18;;;;;;;5.03;3.63;;;;;;;;;;5072893;28;20037;-72
2021/08/23 12:34:49;;;;;;;5.18;3.15;;;;;;;;;;5074668;28;20021;-72
2021/08/23 12:37:16;;;;;;;3.80;3.20;;;;;;;;;;5073620;28;20504;-71
2021/08/23 12:39:46;;;;;;;4.30;3.28;;;;;;;;;;5073075;28;20029;-71
2021/08/23 12:42:12;;;;;;;5.43;3.45;;;;;;;;;;5073410;28;20020;-71
2021/08/23 12:44:38;;;;;;;4.60;3.20;;;;;;;;;;5074269;28;20016;-73
2021/08/23 12:47:05;;;;;;;6.35;3.38;;;;;;;;;;5075453;28;20028;-72
2021/08/23 12:49:31;;;;;;;4.28;3.35;;;;;;;;;;5073929;28;20059;-72
2021/08/23 12:51:57;;;;;;;4.35;3.15;;;;;;;;;;5073296;28;20518;-74
2021/08/23 12:54:23;;;;;;;5.38;3.63;;;;;;;;;;5073490;28;20025;-73
2021/08/23 12:56:52;;;;;;;3.38;2.60;;;;;;;;;;5075067;28;20035;-73
2021/08/23 12:59:19;;;;;;;3.75;3.28;;;;;;;;;;5072722;28;20620;-73
2021/08/23 13:01:45;;;;;;;4.50;3.05;;;;;;;;;;5072909;28;20606;-73
2021/08/23 13:04:11;;;;;;;4.50;3.20;;;;;;;;;;5073675;28;20021;-73
2021/08/23 13:06:37;;;;;;;5.13;2.85;;;;;;;;;;5071984;28;20457;-74
2021/08/23 13:09:04;;;;;;;3.33;2.63;;;;;;;;;;5072802;28;20074;-74
2021/08/23 13:11:30;;;;;;;4.85;2.80;;;;;;;;;;5074349;28;20031;-73
2021/08/23 13:13:56;;;;;;;4.30;2.67;;;;;;;;;;5077409;28;20035;-73
2021/08/23 13:16:23;;;;;;;5.57;2.60;;;;;;;;;;5078783;28;20021;-73
2021/08/23 13:18:53;;;;;;;3.50;2.60;;;;;;;;;;5080309;28;20047;-74
2021/08/23 13:21:20;;;;;;;2.90;2.10;;;;;;;;;;5076824;28;20085;-72
2021/08/23 13:23:46;;;;;;;5.75;2.75;;;;;;;;;;5077225;28;20024;-73
2021/08/23 13:26:13;;;;;;;3.03;2.42;;;;;;;;;;5078082;28;20079;-73
2021/08/23 13:28:39;;;;;;;4.85;2.30;;;;;;;;;;5077247;28;20028;-73
2021/08/23 13:31:05;;;;;;;3.60;2.88;;;;;;;;;;5076460;28;20027;-74
2021/08/23 13:33:31;;;;;;;4.25;2.88;;;;;;;;;;5076581;28;20353;-73
2021/08/23 13:35:57;;;;;;;2.97;2.67;;;;;;;;;;5075090;28;20086;-73
2021/08/23 13:38:23;;;;;;;4.63;3.65;;;;;;;;;;5077150;28;20021;-72
2021/08/23 13:40:50;;;;;;;3.72;2.70;;;;;;;;;;5075059;28;20461;-73
2021/08/23 13:43:17;;;;;;;3.47;2.58;;;;;;;;;;5076457;28;20025;-74
2021/08/23 13:45:43;;;;;;;2.72;2.53;;;;;;;;;;5076694;28;20024;-74
2021/08/23 13:48:11;;;;;;;2.80;2.33;;;;;;;;;;5077090;28;20025;-75
2021/08/23 13:50:37;;;;;;;3.35;2.50;;;;;;;;;;5077446;28;20043;-73
2021/08/23 13:53:04;;;;;;;2.97;2.38;;;;;;;;;;5079178;28;20025;-74
2021/08/23 13:55:30;;;;;;;3.67;2.20;;;;;;;;;;5081579;28;20042;-73
2021/08/23 13:57:56;;;;;;;2.83;2.00;;;;;;;;;;5081436;28;20078;-74
2021/08/23 14:00:22;;;;;;;2.60;2.40;;;;;;;;;;5081021;28;20039;-77
2021/08/23 14:02:50;;;;;;;2.47;2.25;;;;;;;;;;5076273;28;20124;-74
2021/08/23 14:05:17;;;;;;;3.03;2.10;;;;;;;;;;5076307;28;20020;-73
2021/08/23 14:07:43;;;;;;;3.08;2.17;;;;;;;;;;5077746;28;20075;-74
2021/08/23 14:10:09;;;;;;;3.08;2.10;;;;;;;;;;5076712;28;20043;-75
2021/08/23 14:12:35;;;;;;;2.67;2.17;;;;;;;;;;5076570;28;20047;-73
2021/08/23 14:15:01;;;;;;;3.35;2.00;;;;;;;;;;5076268;28;20021;-73
2021/08/23 14:17:27;;;;;;;2.58;2.15;;;;;;;;;;5076435;28;20039;-76
2021/08/23 14:19:58;;;;;;;2.92;2.22;;;;;;;;;;5077127;28;20082;-73
2021/08/23 14:22:24;;;;;;;3.42;2.17;;;;;;;;;;5077149;28;20093;-74
2021/08/23 14:24:50;;;;;;;3.50;2.40;;;;;;;;;;5076139;28;20020;-74
2021/08/23 14:27:16;;;;;;;2.67;2.00;;;;;;;;;;5074535;28;20384;-73
2021/08/23 14:29:42;;;;;;;3.65;2.08;;;;;;;;;;5075840;28;20360;-72
2021/08/23 14:32:08;;;;;;;4.28;2.10;;;;;;;;;;5075666;28;20020;-74
2021/08/23 14:34:34;;;;;;;3.78;2.38;;;;;;;;;;5075830;28;20081;-73
2021/08/23 14:37:00;;;;;;;5.97;2.28;;;;;;;;;;5075482;28;20028;-73
2021/08/23 14:39:26;;;;;;;4.20;2.67;;;;;;;;;;5075731;28;20028;-73